sensor_id;sensor_type;location;lat;lon;timestamp;pressure;altitude;pressure_sealevel;temperature;humidity
21547;BME280;41275;51.912;4.388;2023-03-01T00:03:36;103208.13;;;7.49;47.56
21547;BME280;41275;51.912;4.388;2023-03-01T00:08:57;103195.09;;;7.47;47.72
21547;BME280;41275;51.912;4.388;2023-03-01T00:14:18;103201.47;;;7.45;48.04
21547;BME280;41275;51.912;4.388;2023-03-01T00:19:39;103196.66;;;7.40;48.02
21547;BME280;41275;51.912;4.388;2023-03-01T00:25:00;103187.41;;;7.36;48.03
21547;BME280;41275;51.912;4.388;2023-03-01T00:30:22;103185.88;;;7.33;48.38
21547;BME280;41275;51.912;4.388;2023-03-01T00:35:43;103182.69;;;7.30;48.84
21547;BME280;41275;51.912;4.388;2023-03-01T00:41:05;103186.31;;;7.29;48.60
21547;BME280;41275;51.912;4.388;2023-03-01T00:46:27;103190.06;;;7.26;49.22
21547;BME280;41275;51.912;4.388;2023-03-01T00:51:48;103193.00;;;7.23;49.22
21547;BME280;41275;51.912;4.388;2023-03-01T00:57:09;103179.31;;;7.20;49.50
21547;BME280;41275;51.912;4.388;2023-03-01T01:02:33;103183.03;;;7.17;49.01
21547;BME280;41275;51.912;4.388;2023-03-01T01:07:54;103186.66;;;7.16;49.11
21547;BME280;41275;51.912;4.388;2023-03-01T01:13:15;103176.25;;;7.14;50.21
21547;BME280;41275;51.912;4.388;2023-03-01T01:18:37;103180.97;;;7.11;49.71
21547;BME280;41275;51.912;4.388;2023-03-01T01:23:58;103174.06;;;7.10;49.73
21547;BME280;41275;51.912;4.388;2023-03-01T01:29:19;103162.03;;;7.07;50.48
21547;BME280;41275;51.912;4.388;2023-03-01T01:34:41;103152.75;;;7.03;49.99
21547;BME280;41275;51.912;4.388;2023-03-01T01:40:02;103146.97;;;7.00;50.01
21547;BME280;41275;51.912;4.388;2023-03-01T01:45:33;103141.69;;;7.00;50.28
21547;BME280;41275;51.912;4.388;2023-03-01T01:50:59;103125.13;;;6.89;50.81
21547;BME280;41275;51.912;4.388;2023-03-01T01:56:24;103116.69;;;6.86;50.60
21547;BME280;41275;51.912;4.388;2023-03-01T02:01:46;103121.41;;;6.82;50.53
21547;BME280;41275;51.912;4.388;2023-03-01T02:07:15;103114.91;;;6.77;50.52
21547;BME280;41275;51.912;4.388;2023-03-01T02:12:38;103116.41;;;6.79;50.53
21547;BME280;41275;51.912;4.388;2023-03-01T02:18:00;103110.75;;;6.74;51.10
21547;BME280;41275;51.912;4.388;2023-03-01T02:23:22;103111.88;;;6.72;51.07
21547;BME280;41275;51.912;4.388;2023-03-01T02:28:44;103108.41;;;6.71;51.22
21547;BME280;41275;51.912;4.388;2023-03-01T02:34:07;103103.16;;;6.71;51.69
21547;BME280;41275;51.912;4.388;2023-03-01T02:39:50;103099.84;;;6.69;51.26
21547;BME280;41275;51.912;4.388;2023-03-01T02:45:12;103103.47;;;6.68;51.62
21547;BME280;41275;51.912;4.388;2023-03-01T02:51:03;103098.22;;;6.68;51.45
21547;BME280;41275;51.912;4.388;2023-03-01T02:56:26;103090.59;;;6.65;51.78
21547;BME280;41275;51.912;4.388;2023-03-01T03:01:47;103080.63;;;6.59;52.04
21547;BME280;41275;51.912;4.388;2023-03-01T03:07:09;103074.25;;;6.61;52.16
21547;BME280;41275;51.912;4.388;2023-03-01T03:12:30;103079.81;;;6.58;52.01
21547;BME280;41275;51.912;4.388;2023-03-01T03:17:52;103077.03;;;6.60;52.64
21547;BME280;41275;51.912;4.388;2023-03-01T03:23:14;103076.91;;;6.61;51.93
21547;BME280;41275;51.912;4.388;2023-03-01T03:28:35;103071.09;;;6.58;52.23
21547;BME280;41275;51.912;4.388;2023-03-01T03:33:56;103066.94;;;6.55;52.03
21547;BME280;41275;51.912;4.388;2023-03-01T03:39:17;103063.09;;;6.50;52.23
21547;BME280;41275;51.912;4.388;2023-03-01T03:44:38;103059.22;;;6.44;53.06
21547;BME280;41275;51.912;4.388;2023-03-01T03:50:00;103053.13;;;6.44;52.60
21547;BME280;41275;51.912;4.388;2023-03-01T03:55:21;103056.75;;;6.43;52.70
21547;BME280;41275;51.912;4.388;2023-03-01T04:00:44;103060.19;;;6.43;52.48
21547;BME280;41275;51.912;4.388;2023-03-01T04:06:05;103054.41;;;6.39;52.53
21547;BME280;41275;51.912;4.388;2023-03-01T04:11:27;103048.59;;;6.36;52.62
21547;BME280;41275;51.912;4.388;2023-03-01T04:16:48;103047.22;;;6.32;52.67
21547;BME280;41275;51.912;4.388;2023-03-01T04:22:09;103052.34;;;6.33;52.81
21547;BME280;41275;51.912;4.388;2023-03-01T04:27:35;103045.56;;;6.31;52.58
21547;BME280;41275;51.912;4.388;2023-03-01T04:32:57;103043.09;;;6.29;53.06
21547;BME280;41275;51.912;4.388;2023-03-01T04:38:19;103047.66;;;6.27;52.92
21547;BME280;41275;51.912;4.388;2023-03-01T04:43:40;103044.19;;;6.27;52.86
21547;BME280;41275;51.912;4.388;2023-03-01T04:49:03;103035.94;;;6.22;52.87
21547;BME280;41275;51.912;4.388;2023-03-01T04:54:24;103019.44;;;6.20;53.31
21547;BME280;41275;51.912;4.388;2023-03-01T04:59:45;103019.44;;;6.20;52.96
21547;BME280;41275;51.912;4.388;2023-03-01T05:05:06;103002.31;;;6.15;53.15
21547;BME280;41275;51.912;4.388;2023-03-01T05:10:29;103009.38;;;6.15;53.57
21547;BME280;41275;51.912;4.388;2023-03-01T05:15:58;102999.00;;;6.13;53.12
21547;BME280;41275;51.912;4.388;2023-03-01T05:21:19;103001.09;;;6.10;53.32
21547;BME280;41275;51.912;4.388;2023-03-01T05:26:41;103007.31;;;6.09;53.78
21547;BME280;41275;51.912;4.388;2023-03-01T05:32:02;102990.31;;;6.03;53.48
21547;BME280;41275;51.912;4.388;2023-03-01T05:37:23;102979.13;;;5.91;53.12
21547;BME280;41275;51.912;4.388;2023-03-01T05:42:45;102969.03;;;5.87;52.98
21547;BME280;41275;51.912;4.388;2023-03-01T05:48:07;102969.03;;;5.77;53.88
21547;BME280;41275;51.912;4.388;2023-03-01T05:53:29;102972.25;;;5.71;53.49
21547;BME280;41275;51.912;4.388;2023-03-01T05:58:50;102963.44;;;5.62;53.48
21547;BME280;41275;51.912;4.388;2023-03-01T06:04:11;102975.84;;;5.60;53.20
21547;BME280;41275;51.912;4.388;2023-03-01T06:09:33;102972.13;;;5.53;53.32
21547;BME280;41275;51.912;4.388;2023-03-01T06:14:54;102965.50;;;5.49;53.24
21547;BME280;41275;51.912;4.388;2023-03-01T06:20:21;102972.44;;;5.50;53.53
21547;BME280;41275;51.912;4.388;2023-03-01T06:25:42;102975.59;;;5.44;53.46
21547;BME280;41275;51.912;4.388;2023-03-01T06:31:04;102985.00;;;5.47;53.50
21547;BME280;41275;51.912;4.388;2023-03-01T06:36:25;102974.63;;;5.45;53.20
21547;BME280;41275;51.912;4.388;2023-03-01T06:41:46;102983.31;;;5.46;53.01
21547;BME280;41275;51.912;4.388;2023-03-01T06:47:07;102984.03;;;5.48;53.67
21547;BME280;41275;51.912;4.388;2023-03-01T06:52:29;102984.31;;;5.54;53.01
21547;BME280;41275;51.912;4.388;2023-03-01T06:57:57;102983.06;;;5.58;53.00
21547;BME280;41275;51.912;4.388;2023-03-01T07:03:19;102982.22;;;5.68;53.45
21547;BME280;41275;51.912;4.388;2023-03-01T07:08:40;102984.53;;;5.80;53.89
21547;BME280;41275;51.912;4.388;2023-03-01T07:14:01;102970.84;;;5.86;53.54
21547;BME280;41275;51.912;4.388;2023-03-01T07:19:23;102978.59;;;5.98;53.64
21547;BME280;41275;51.912;4.388;2023-03-01T07:24:44;102990.03;;;6.06;53.66
21547;BME280;41275;51.912;4.388;2023-03-01T07:30:06;102983.63;;;6.19;54.10
21547;BME280;41275;51.912;4.388;2023-03-01T07:35:27;102990.91;;;6.34;53.72
21547;BME280;41275;51.912;4.388;2023-03-01T07:40:48;102987.78;;;6.49;53.40
21547;BME280;41275;51.912;4.388;2023-03-01T07:46:10;102978.56;;;6.62;52.84
21547;BME280;41275;51.912;4.388;2023-03-01T07:51:31;102986.63;;;6.79;53.23
21547;BME280;41275;51.912;4.388;2023-03-01T07:56:52;102999.13;;;6.95;53.27
21547;BME280;41275;51.912;4.388;2023-03-01T08:02:15;102989.09;;;7.08;52.78
21547;BME280;41275;51.912;4.388;2023-03-01T08:07:37;102981.16;;;7.26;52.62
21547;BME280;41275;51.912;4.388;2023-03-01T08:12:58;102980.19;;;7.45;52.44
21547;BME280;41275;51.912;4.388;2023-03-01T08:18:20;102984.97;;;7.67;52.40
21547;BME280;41275;51.912;4.388;2023-03-01T08:23:42;102976.03;;;7.86;51.83
21547;BME280;41275;51.912;4.388;2023-03-01T08:29:03;102978.00;;;8.10;50.58
21547;BME280;41275;51.912;4.388;2023-03-01T08:34:25;102970.31;;;8.33;50.37
21547;BME280;41275;51.912;4.388;2023-03-01T08:39:46;102970.34;;;8.92;49.47
21547;BME280;41275;51.912;4.388;2023-03-01T08:45:08;102977.50;;;9.56;48.35
21547;BME280;41275;51.912;4.388;2023-03-01T08:50:29;102969.56;;;9.65;46.75
21547;BME280;41275;51.912;4.388;2023-03-01T08:55:50;102969.03;;;9.77;45.31
21547;BME280;41275;51.912;4.388;2023-03-01T09:01:17;102978.25;;;9.90;43.95
21547;BME280;41275;51.912;4.388;2023-03-01T09:06:38;102962.84;;;10.01;42.96
21547;BME280;41275;51.912;4.388;2023-03-01T09:12:00;102954.03;;;10.17;41.91
21547;BME280;41275;51.912;4.388;2023-03-01T09:17:22;102948.34;;;10.37;40.72
21547;BME280;41275;51.912;4.388;2023-03-01T09:22:43;102946.09;;;10.56;40.09
21547;BME280;41275;51.912;4.388;2023-03-01T09:28:04;102934.97;;;10.69;39.26
21547;BME280;41275;51.912;4.388;2023-03-01T09:33:26;102927.53;;;10.88;38.84
21547;BME280;41275;51.912;4.388;2023-03-01T09:38:48;102922.69;;;11.14;37.88
21547;BME280;41275;51.912;4.388;2023-03-01T09:56:09;102922.03;;;11.50;36.86
21547;BME280;41275;51.912;4.388;2023-03-01T10:12:27;102903.78;;;11.85;35.36
21547;BME280;41275;51.912;4.388;2023-03-01T10:17:56;102904.25;;;11.88;34.96
21547;BME280;41275;51.912;4.388;2023-03-01T10:23:18;102892.88;;;11.94;34.98
21547;BME280;41275;51.912;4.388;2023-03-01T10:29:05;102888.38;;;12.10;34.76
21547;BME280;41275;51.912;4.388;2023-03-01T10:34:31;102880.66;;;12.29;34.28
21547;BME280;41275;51.912;4.388;2023-03-01T10:40:05;102883.63;;;12.41;34.33
21547;BME280;41275;51.912;4.388;2023-03-01T10:56:18;102867.72;;;12.41;32.81
21547;BME280;41275;51.912;4.388;2023-03-01T11:01:40;102864.88;;;12.43;32.51
21547;BME280;41275;51.912;4.388;2023-03-01T11:07:02;102855.97;;;12.50;32.57
21547;BME280;41275;51.912;4.388;2023-03-01T11:12:24;102844.13;;;12.74;32.57
21547;BME280;41275;51.912;4.388;2023-03-01T11:17:45;102834.19;;;12.83;32.19
21547;BME280;41275;51.912;4.388;2023-03-01T11:23:12;102827.09;;;12.90;32.43
21547;BME280;41275;51.912;4.388;2023-03-01T11:28:34;102819.34;;;12.95;32.49
21547;BME280;41275;51.912;4.388;2023-03-01T11:34:14;102818.34;;;12.96;32.33
21547;BME280;41275;51.912;4.388;2023-03-01T11:39:43;102807.75;;;13.03;32.36
21547;BME280;41275;51.912;4.388;2023-03-01T11:45:10;102812.22;;;13.24;32.74
21547;BME280;41275;51.912;4.388;2023-03-01T11:50:40;102816.06;;;13.21;32.15
21547;BME280;41275;51.912;4.388;2023-03-01T11:56:10;102798.47;;;13.20;32.45
21547;BME280;41275;51.912;4.388;2023-03-01T12:01:50;102803.09;;;13.40;32.55
21547;BME280;41275;51.912;4.388;2023-03-01T12:07:20;102781.16;;;13.31;32.92
21547;BME280;41275;51.912;4.388;2023-03-01T12:19:42;102772.72;;;13.62;32.42
21547;BME280;41275;51.912;4.388;2023-03-01T12:24:57;102756.78;;;13.69;31.47
21547;BME280;41275;51.912;4.388;2023-03-01T12:36:39;102733.66;;;15.74;30.31
21547;BME280;41275;51.912;4.388;2023-03-01T12:42:19;102742.22;;;17.07;29.07
21547;BME280;41275;51.912;4.388;2023-03-01T12:47:58;102736.31;;;17.84;27.87
21547;BME280;41275;51.912;4.388;2023-03-01T12:53:41;102736.56;;;18.48;26.48
21547;BME280;41275;51.912;4.388;2023-03-01T12:59:30;102739.06;;;19.13;25.10
21547;BME280;41275;51.912;4.388;2023-03-01T13:05:19;102729.09;;;20.11;23.78
21547;BME280;41275;51.912;4.388;2023-03-01T13:10:56;102725.53;;;20.22;22.73
21547;BME280;41275;51.912;4.388;2023-03-01T13:16:40;102728.78;;;20.24;22.33
21547;BME280;41275;51.912;4.388;2023-03-01T13:22:26;102728.22;;;20.56;22.02
21547;BME280;41275;51.912;4.388;2023-03-01T13:27:48;102710.19;;;20.56;21.46
21547;BME280;41275;51.912;4.388;2023-03-01T13:38:56;102685.25;;;20.61;21.57
21547;BME280;41275;51.912;4.388;2023-03-01T13:44:35;102669.53;;;20.75;21.44
21547;BME280;41275;51.912;4.388;2023-03-01T13:50:23;102667.69;;;21.46;20.80
21547;BME280;41275;51.912;4.388;2023-03-01T13:55:48;102663.00;;;21.64;20.48
21547;BME280;41275;51.912;4.388;2023-03-01T14:06:48;102643.69;;;22.57;19.76
21547;BME280;41275;51.912;4.388;2023-03-01T14:12:24;102634.63;;;22.25;20.22
21547;BME280;41275;51.912;4.388;2023-03-01T14:18:19;102629.31;;;22.41;19.95
21547;BME280;41275;51.912;4.388;2023-03-01T14:23:43;102615.41;;;22.64;19.65
21547;BME280;41275;51.912;4.388;2023-03-01T14:29:04;102614.25;;;22.45;20.10
21547;BME280;41275;51.912;4.388;2023-03-01T14:34:26;102601.97;;;22.17;19.95
21547;BME280;41275;51.912;4.388;2023-03-01T14:39:47;102586.28;;;22.82;19.73
21547;BME280;41275;51.912;4.388;2023-03-01T14:45:12;102572.88;;;22.92;19.51
21547;BME280;41275;51.912;4.388;2023-03-01T14:50:35;102560.97;;;22.93;19.27
21547;BME280;41275;51.912;4.388;2023-03-01T14:56:01;102556.22;;;22.47;19.29
21547;BME280;41275;51.912;4.388;2023-03-01T15:01:26;102553.84;;;22.56;19.09
21547;BME280;41275;51.912;4.388;2023-03-01T15:06:50;102551.06;;;21.19;19.59
21547;BME280;41275;51.912;4.388;2023-03-01T15:12:44;102552.00;;;17.81;22.43
21547;BME280;41275;51.912;4.388;2023-03-01T15:18:18;102545.63;;;16.31;24.46
21547;BME280;41275;51.912;4.388;2023-03-01T15:23:41;102535.59;;;15.65;24.83
21547;BME280;41275;51.912;4.388;2023-03-01T15:29:02;102533.81;;;15.20;25.63
21547;BME280;41275;51.912;4.388;2023-03-01T15:34:34;102526.84;;;14.88;26.38
21547;BME280;41275;51.912;4.388;2023-03-01T15:39:57;102530.06;;;14.58;26.90
21547;BME280;41275;51.912;4.388;2023-03-01T15:45:24;102531.13;;;14.44;27.36
21547;BME280;41275;51.912;4.388;2023-03-01T15:50:57;102536.91;;;14.28;27.61
21547;BME280;41275;51.912;4.388;2023-03-01T15:56:19;102532.84;;;14.12;27.78
21547;BME280;41275;51.912;4.388;2023-03-01T16:01:41;102521.19;;;13.99;27.75
21547;BME280;41275;51.912;4.388;2023-03-01T16:07:02;102518.75;;;13.91;28.20
21547;BME280;41275;51.912;4.388;2023-03-01T16:12:23;102520.19;;;13.87;28.46
21547;BME280;41275;51.912;4.388;2023-03-01T16:17:45;102518.56;;;13.80;28.42
21547;BME280;41275;51.912;4.388;2023-03-01T16:23:07;102512.84;;;13.69;28.40
21547;BME280;41275;51.912;4.388;2023-03-01T16:28:29;102502.63;;;13.60;28.70
21547;BME280;41275;51.912;4.388;2023-03-01T16:33:53;102502.41;;;13.48;29.39
21547;BME280;41275;51.912;4.388;2023-03-01T16:39:14;102500.97;;;13.39;29.87
21547;BME280;41275;51.912;4.388;2023-03-01T16:44:37;102499.53;;;13.30;30.37
21547;BME280;41275;51.912;4.388;2023-03-01T16:49:58;102490.50;;;13.17;30.76
21547;BME280;41275;51.912;4.388;2023-03-01T16:55:19;102506.00;;;13.07;31.02
21547;BME280;41275;51.912;4.388;2023-03-01T17:00:41;102496.97;;;12.95;31.63
21547;BME280;41275;51.912;4.388;2023-03-01T17:06:04;102489.19;;;12.87;31.63
21547;BME280;41275;51.912;4.388;2023-03-01T17:11:26;102486.91;;;12.77;31.90
21547;BME280;41275;51.912;4.388;2023-03-01T17:16:47;102499.56;;;12.68;32.13
21547;BME280;41275;51.912;4.388;2023-03-01T17:22:09;102501.97;;;12.57;32.29
21547;BME280;41275;51.912;4.388;2023-03-01T17:27:31;102512.53;;;12.43;32.46
21547;BME280;41275;51.912;4.388;2023-03-01T17:32:55;102522.09;;;12.38;32.78
21547;BME280;41275;51.912;4.388;2023-03-01T17:38:17;102519.00;;;12.27;33.14
21547;BME280;41275;51.912;4.388;2023-03-01T17:43:38;102517.09;;;12.15;33.56
21547;BME280;41275;51.912;4.388;2023-03-01T17:48:59;102523.97;;;12.02;33.85
21547;BME280;41275;51.912;4.388;2023-03-01T17:54:21;102526.13;;;11.92;34.10
21547;BME280;41275;51.912;4.388;2023-03-01T17:59:42;102531.19;;;11.87;34.11
21547;BME280;41275;51.912;4.388;2023-03-01T18:05:03;102536.78;;;11.77;34.08
21547;BME280;41275;51.912;4.388;2023-03-01T18:10:25;102534.88;;;11.65;34.47
21547;BME280;41275;51.912;4.388;2023-03-01T18:15:46;102549.31;;;11.62;34.50
21547;BME280;41275;51.912;4.388;2023-03-01T18:21:07;102551.28;;;11.53;34.82
21547;BME280;41275;51.912;4.388;2023-03-01T18:26:29;102551.63;;;11.44;34.75
21547;BME280;41275;51.912;4.388;2023-03-01T18:31:50;102546.63;;;11.34;35.07
21547;BME280;41275;51.912;4.388;2023-03-01T18:37:11;102556.53;;;11.25;35.41
21547;BME280;41275;51.912;4.388;2023-03-01T18:42:32;102542.38;;;11.18;35.50
21547;BME280;41275;51.912;4.388;2023-03-01T18:47:53;102544.13;;;11.11;35.67
21547;BME280;41275;51.912;4.388;2023-03-01T18:53:15;102542.41;;;11.03;36.24
21547;BME280;41275;51.912;4.388;2023-03-01T18:58:36;102536.63;;;10.93;36.36
21547;BME280;41275;51.912;4.388;2023-03-01T19:03:58;102545.75;;;10.91;36.14
21547;BME280;41275;51.912;4.388;2023-03-01T19:09:19;102552.63;;;10.85;36.74
21547;BME280;41275;51.912;4.388;2023-03-01T19:14:41;102544.13;;;10.75;36.64
21547;BME280;41275;51.912;4.388;2023-03-01T19:20:03;102541.41;;;10.68;36.96
21547;BME280;41275;51.912;4.388;2023-03-01T19:25:24;102545.41;;;10.64;36.60
21547;BME280;41275;51.912;4.388;2023-03-01T19:30:45;102554.47;;;10.55;36.96
21547;BME280;41275;51.912;4.388;2023-03-01T19:36:08;102554.22;;;10.50;37.32
21547;BME280;41275;51.912;4.388;2023-03-01T19:41:30;102535.94;;;10.40;37.26
21547;BME280;41275;51.912;4.388;2023-03-01T19:46:52;102540.78;;;10.37;37.14
21547;BME280;41275;51.912;4.388;2023-03-01T19:52:14;102535.59;;;10.28;37.27
21547;BME280;41275;51.912;4.388;2023-03-01T19:57:35;102536.91;;;10.24;37.83
21547;BME280;41275;51.912;4.388;2023-03-01T20:02:56;102532.72;;;10.15;38.07
21547;BME280;41275;51.912;4.388;2023-03-01T20:08:18;102527.69;;;10.05;37.75
21547;BME280;41275;51.912;4.388;2023-03-01T20:13:39;102528.31;;;9.93;38.37
21547;BME280;41275;51.912;4.388;2023-03-01T20:19:01;102527.22;;;9.87;38.49
21547;BME280;41275;51.912;4.388;2023-03-01T20:24:22;102532.50;;;9.87;38.01
21547;BME280;41275;51.912;4.388;2023-03-01T20:29:44;102531.22;;;9.83;37.93
21547;BME280;41275;51.912;4.388;2023-03-01T20:35:06;102527.13;;;9.80;38.14
21547;BME280;41275;51.912;4.388;2023-03-01T20:40:27;102532.94;;;9.76;37.97
21547;BME280;41275;51.912;4.388;2023-03-01T20:45:48;102539.88;;;9.77;38.43
21547;BME280;41275;51.912;4.388;2023-03-01T20:51:11;102549.34;;;9.71;38.49
21547;BME280;41275;51.912;4.388;2023-03-01T20:56:32;102545.28;;;9.61;38.35
21547;BME280;41275;51.912;4.388;2023-03-01T21:01:53;102554.03;;;9.61;38.38
21547;BME280;41275;51.912;4.388;2023-03-01T21:07:15;102556.75;;;9.53;38.45
21547;BME280;41275;51.912;4.388;2023-03-01T21:12:36;102563.38;;;9.49;38.53
21547;BME280;41275;51.912;4.388;2023-03-01T21:17:58;102556.88;;;9.37;38.82
21547;BME280;41275;51.912;4.388;2023-03-01T21:23:19;102563.19;;;9.27;39.28
21547;BME280;41275;51.912;4.388;2023-03-01T21:28:41;102575.09;;;9.23;39.54
21547;BME280;41275;51.912;4.388;2023-03-01T21:34:04;102573.38;;;9.16;39.63
21547;BME280;41275;51.912;4.388;2023-03-01T21:39:27;102573.84;;;9.11;39.68
21547;BME280;41275;51.912;4.388;2023-03-01T21:44:52;102570.44;;;9.02;39.71
21547;BME280;41275;51.912;4.388;2023-03-01T21:50:13;102573.31;;;8.93;40.02
21547;BME280;41275;51.912;4.388;2023-03-01T21:55:34;102573.03;;;8.79;40.39
21547;BME280;41275;51.912;4.388;2023-03-01T22:01:06;102575.41;;;8.66;40.79
21547;BME280;41275;51.912;4.388;2023-03-01T22:06:33;102570.78;;;8.60;41.45
21547;BME280;41275;51.912;4.388;2023-03-01T22:11:58;102579.53;;;8.52;41.32
21547;BME280;41275;51.912;4.388;2023-03-01T22:17:22;102577.41;;;8.48;41.81
21547;BME280;41275;51.912;4.388;2023-03-01T22:22:43;102569.38;;;8.41;41.88
21547;BME280;41275;51.912;4.388;2023-03-01T22:28:04;102557.63;;;8.35;41.94
21547;BME280;41275;51.912;4.388;2023-03-01T22:33:25;102555.69;;;8.29;42.41
21547;BME280;41275;51.912;4.388;2023-03-01T22:38:47;102548.09;;;8.26;42.95
21547;BME280;41275;51.912;4.388;2023-03-01T22:44:15;102550.06;;;8.24;43.10
21547;BME280;41275;51.912;4.388;2023-03-01T22:49:37;102551.75;;;8.25;43.11
21547;BME280;41275;51.912;4.388;2023-03-01T22:54:58;102550.06;;;8.24;42.96
21547;BME280;41275;51.912;4.388;2023-03-01T23:00:19;102556.66;;;8.28;43.00
21547;BME280;41275;51.912;4.388;2023-03-01T23:05:41;102561.94;;;8.28;43.53
21547;BME280;41275;51.912;4.388;2023-03-01T23:11:03;102558.81;;;8.25;43.41
21547;BME280;41275;51.912;4.388;2023-03-01T23:16:29;102556.53;;;8.22;42.66
21547;BME280;41275;51.912;4.388;2023-03-01T23:21:50;102557.16;;;8.24;42.85
21547;BME280;41275;51.912;4.388;2023-03-01T23:27:14;102552.91;;;8.23;42.80
21547;BME280;41275;51.912;4.388;2023-03-01T23:32:38;102551.91;;;8.24;43.29
21547;BME280;41275;51.912;4.388;2023-03-01T23:38:00;102554.38;;;8.25;42.63
21547;BME280;41275;51.912;4.388;2023-03-01T23:43:21;102553.19;;;8.28;42.51
21547;BME280;41275;51.912;4.388;2023-03-01T23:48:43;102549.09;;;8.25;42.48
21547;BME280;41275;51.912;4.388;2023-03-01T23:54:04;102551.06;;;8.23;42.46
21547;BME280;41275;51.912;4.388;2023-03-01T23:59:26;102553.22;;;8.20;42.81
